sensor_id;sensor_type;location;lat;lon;timestamp;temperature;humidity
69901;DHT22;57183;50.930;5.406;2023-08-01T00:00:39;17.30;99.90
69901;DHT22;57183;50.930;5.406;2023-08-01T00:03:05;17.30;99.90
69901;DHT22;57183;50.930;5.406;2023-08-01T00:05:31;17.30;99.90
69901;DHT22;57183;50.930;5.406;2023-08-01T00:07:56;17.30;99.90
69901;DHT22;57183;50.930;5.406;2023-08-01T00:10:22;17.30;99.90
69901;DHT22;57183;50.930;5.406;2023-08-01T00:12:47;17.30;99.90
69901;DHT22;57183;50.930;5.406;2023-08-01T00:15:13;17.30;99.90
69901;DHT22;57183;50.930;5.406;2023-08-01T00:17:39;17.40;99.90
69901;DHT22;57183;50.930;5.406;2023-08-01T00:20:05;17.30;99.90
69901;DHT22;57183;50.930;5.406;2023-08-01T00:22:31;17.40;99.90
69901;DHT22;57183;50.930;5.406;2023-08-01T00:24:57;17.40;99.90
69901;DHT22;57183;50.930;5.406;2023-08-01T00:27:23;17.30;99.90
69901;DHT22;57183;50.930;5.406;2023-08-01T00:29:49;17.30;99.90
69901;DHT22;57183;50.930;5.406;2023-08-01T00:32:15;17.30;99.90
69901;DHT22;57183;50.930;5.406;2023-08-01T00:34:40;17.20;99.90
69901;DHT22;57183;50.930;5.406;2023-08-01T00:37:06;17.20;99.90
69901;DHT22;57183;50.930;5.406;2023-08-01T00:39:32;17.30;99.90
69901;DHT22;57183;50.930;5.406;2023-08-01T00:41:58;17.30;99.90
69901;DHT22;57183;50.930;5.406;2023-08-01T00:44:23;17.20;99.90
69901;DHT22;57183;50.930;5.406;2023-08-01T00:46:49;17.20;99.90
69901;DHT22;57183;50.930;5.406;2023-08-01T00:49:15;17.10;99.90
69901;DHT22;57183;50.930;5.406;2023-08-01T00:51:41;17.00;99.90
69901;DHT22;57183;50.930;5.406;2023-08-01T00:54:08;17.00;99.90
69901;DHT22;57183;50.930;5.406;2023-08-01T00:56:33;17.00;99.90
69901;DHT22;57183;50.930;5.406;2023-08-01T00:59:00;16.90;99.90
69901;DHT22;57183;50.930;5.406;2023-08-01T01:01:26;16.80;99.90
69901;DHT22;57183;50.930;5.406;2023-08-01T01:03:52;16.80;99.90
69901;DHT22;57183;50.930;5.406;2023-08-01T01:09:18;16.80;99.90
69901;DHT22;57183;50.930;5.406;2023-08-01T01:11:44;16.80;99.90
69901;DHT22;57183;50.930;5.406;2023-08-01T01:14:10;16.80;99.90
69901;DHT22;57183;50.930;5.406;2023-08-01T01:16:36;16.80;99.90
69901;DHT22;57183;50.930;5.406;2023-08-01T01:19:07;16.80;99.90
69901;DHT22;57183;50.930;5.406;2023-08-01T01:21:38;16.80;99.90
69901;DHT22;57183;50.930;5.406;2023-08-01T01:24:05;16.70;99.90
69901;DHT22;57183;50.930;5.406;2023-08-01T01:26:33;16.60;99.90
69901;DHT22;57183;50.930;5.406;2023-08-01T01:28:59;16.60;99.90
69901;DHT22;57183;50.930;5.406;2023-08-01T01:31:26;16.60;99.90
69901;DHT22;57183;50.930;5.406;2023-08-01T01:33:52;16.60;99.90
69901;DHT22;57183;50.930;5.406;2023-08-01T01:36:18;16.50;99.90
69901;DHT22;57183;50.930;5.406;2023-08-01T01:38:44;16.50;99.90
69901;DHT22;57183;50.930;5.406;2023-08-01T01:41:09;16.50;99.90
69901;DHT22;57183;50.930;5.406;2023-08-01T01:43:36;16.40;99.90
69901;DHT22;57183;50.930;5.406;2023-08-01T01:46:03;16.40;99.90
69901;DHT22;57183;50.930;5.406;2023-08-01T01:48:29;16.40;99.90
69901;DHT22;57183;50.930;5.406;2023-08-01T01:50:54;16.30;99.90
69901;DHT22;57183;50.930;5.406;2023-08-01T01:53:20;16.30;99.90
69901;DHT22;57183;50.930;5.406;2023-08-01T01:55:45;16.30;99.90
69901;DHT22;57183;50.930;5.406;2023-08-01T01:58:11;16.30;99.90
69901;DHT22;57183;50.930;5.406;2023-08-01T02:00:37;16.20;99.90
69901;DHT22;57183;50.930;5.406;2023-08-01T02:03:02;16.20;99.90
69901;DHT22;57183;50.930;5.406;2023-08-01T02:05:29;16.20;99.90
69901;DHT22;57183;50.930;5.406;2023-08-01T02:07:55;16.20;99.90
69901;DHT22;57183;50.930;5.406;2023-08-01T02:10:20;16.20;99.90
69901;DHT22;57183;50.930;5.406;2023-08-01T02:12:46;16.20;99.90
69901;DHT22;57183;50.930;5.406;2023-08-01T02:15:12;16.20;99.90
69901;DHT22;57183;50.930;5.406;2023-08-01T02:17:38;16.20;99.90
69901;DHT22;57183;50.930;5.406;2023-08-01T02:20:04;16.20;99.90
69901;DHT22;57183;50.930;5.406;2023-08-01T02:22:30;16.20;99.90
69901;DHT22;57183;50.930;5.406;2023-08-01T02:24:56;16.20;99.90
69901;DHT22;57183;50.930;5.406;2023-08-01T02:27:21;16.10;99.90
69901;DHT22;57183;50.930;5.406;2023-08-01T02:29:47;16.10;99.90
69901;DHT22;57183;50.930;5.406;2023-08-01T02:32:15;16.10;99.90
69901;DHT22;57183;50.930;5.406;2023-08-01T02:34:40;16.20;99.90
69901;DHT22;57183;50.930;5.406;2023-08-01T02:37:06;16.20;99.90
69901;DHT22;57183;50.930;5.406;2023-08-01T02:39:32;16.30;99.90
69901;DHT22;57183;50.930;5.406;2023-08-01T02:41:57;16.20;99.90
69901;DHT22;57183;50.930;5.406;2023-08-01T02:44:23;16.20;99.90
69901;DHT22;57183;50.930;5.406;2023-08-01T02:46:49;16.20;99.90
69901;DHT22;57183;50.930;5.406;2023-08-01T02:49:14;16.20;99.90
69901;DHT22;57183;50.930;5.406;2023-08-01T02:51:40;16.20;99.90
69901;DHT22;57183;50.930;5.406;2023-08-01T02:54:05;16.20;99.90
69901;DHT22;57183;50.930;5.406;2023-08-01T02:56:31;16.20;99.90
69901;DHT22;57183;50.930;5.406;2023-08-01T02:58:57;16.20;99.90
69901;DHT22;57183;50.930;5.406;2023-08-01T03:01:22;16.20;99.90
69901;DHT22;57183;50.930;5.406;2023-08-01T03:03:48;16.20;99.90
69901;DHT22;57183;50.930;5.406;2023-08-01T03:06:14;16.20;99.90
69901;DHT22;57183;50.930;5.406;2023-08-01T03:08:40;16.20;99.90
69901;DHT22;57183;50.930;5.406;2023-08-01T03:11:06;16.20;99.90
69901;DHT22;57183;50.930;5.406;2023-08-01T03:13:31;16.20;99.90
69901;DHT22;57183;50.930;5.406;2023-08-01T03:15:57;16.20;99.90
69901;DHT22;57183;50.930;5.406;2023-08-01T03:18:23;16.20;99.90
69901;DHT22;57183;50.930;5.406;2023-08-01T03:20:48;16.20;99.90
69901;DHT22;57183;50.930;5.406;2023-08-01T03:23:14;16.30;99.90
69901;DHT22;57183;50.930;5.406;2023-08-01T03:25:40;16.30;99.90
69901;DHT22;57183;50.930;5.406;2023-08-01T03:28:06;16.30;99.90
69901;DHT22;57183;50.930;5.406;2023-08-01T03:30:32;16.30;99.90
69901;DHT22;57183;50.930;5.406;2023-08-01T03:33:00;16.30;99.90
69901;DHT22;57183;50.930;5.406;2023-08-01T03:35:26;16.20;99.90
69901;DHT22;57183;50.930;5.406;2023-08-01T03:37:52;16.20;99.90
69901;DHT22;57183;50.930;5.406;2023-08-01T03:40:17;16.30;99.90
69901;DHT22;57183;50.930;5.406;2023-08-01T03:42:45;16.30;99.90
69901;DHT22;57183;50.930;5.406;2023-08-01T03:45:10;16.40;99.90
69901;DHT22;57183;50.930;5.406;2023-08-01T03:47:36;16.40;99.90
69901;DHT22;57183;50.930;5.406;2023-08-01T03:50:02;16.40;99.90
69901;DHT22;57183;50.930;5.406;2023-08-01T03:52:28;16.40;99.90
69901;DHT22;57183;50.930;5.406;2023-08-01T03:54:55;16.30;99.90
69901;DHT22;57183;50.930;5.406;2023-08-01T03:57:21;16.40;99.90
69901;DHT22;57183;50.930;5.406;2023-08-01T03:59:47;16.30;99.90
69901;DHT22;57183;50.930;5.406;2023-08-01T04:02:12;16.20;99.90
69901;DHT22;57183;50.930;5.406;2023-08-01T04:04:38;16.10;99.90
69901;DHT22;57183;50.930;5.406;2023-08-01T04:07:04;16.10;99.90
69901;DHT22;57183;50.930;5.406;2023-08-01T04:09:29;16.10;99.90
69901;DHT22;57183;50.930;5.406;2023-08-01T04:11:55;16.10;99.90
69901;DHT22;57183;50.930;5.406;2023-08-01T04:14:21;16.10;99.90
69901;DHT22;57183;50.930;5.406;2023-08-01T04:16:46;16.10;99.90
69901;DHT22;57183;50.930;5.406;2023-08-01T04:19:12;16.10;99.90
69901;DHT22;57183;50.930;5.406;2023-08-01T04:21:38;16.20;99.90
69901;DHT22;57183;50.930;5.406;2023-08-01T04:24:04;16.10;99.90
69901;DHT22;57183;50.930;5.406;2023-08-01T04:26:30;16.10;99.90
69901;DHT22;57183;50.930;5.406;2023-08-01T04:28:55;16.10;99.90
69901;DHT22;57183;50.930;5.406;2023-08-01T04:31:21;16.10;99.90
69901;DHT22;57183;50.930;5.406;2023-08-01T04:33:47;16.10;99.90
69901;DHT22;57183;50.930;5.406;2023-08-01T04:36:12;16.10;99.90
69901;DHT22;57183;50.930;5.406;2023-08-01T04:38:38;16.00;99.90
69901;DHT22;57183;50.930;5.406;2023-08-01T04:41:04;16.00;99.90
69901;DHT22;57183;50.930;5.406;2023-08-01T04:43:29;15.90;99.90
69901;DHT22;57183;50.930;5.406;2023-08-01T04:45:55;15.90;99.90
69901;DHT22;57183;50.930;5.406;2023-08-01T04:48:21;15.90;99.90
69901;DHT22;57183;50.930;5.406;2023-08-01T04:50:46;16.00;99.90
69901;DHT22;57183;50.930;5.406;2023-08-01T04:53:12;16.10;99.90
69901;DHT22;57183;50.930;5.406;2023-08-01T04:55:38;16.10;99.90
69901;DHT22;57183;50.930;5.406;2023-08-01T04:58:03;16.20;99.90
69901;DHT22;57183;50.930;5.406;2023-08-01T05:00:29;16.20;99.90
69901;DHT22;57183;50.930;5.406;2023-08-01T05:02:55;16.30;99.90
69901;DHT22;57183;50.930;5.406;2023-08-01T05:05:21;16.20;99.90
69901;DHT22;57183;50.930;5.406;2023-08-01T05:07:46;16.30;99.90
69901;DHT22;57183;50.930;5.406;2023-08-01T05:10:12;16.40;99.90
69901;DHT22;57183;50.930;5.406;2023-08-01T05:12:37;16.30;99.90
69901;DHT22;57183;50.930;5.406;2023-08-01T05:15:03;16.20;99.90
69901;DHT22;57183;50.930;5.406;2023-08-01T05:17:29;16.30;99.90
69901;DHT22;57183;50.930;5.406;2023-08-01T05:19:55;16.40;99.90
69901;DHT22;57183;50.930;5.406;2023-08-01T05:22:21;16.50;99.90
69901;DHT22;57183;50.930;5.406;2023-08-01T05:24:46;16.40;99.90
69901;DHT22;57183;50.930;5.406;2023-08-01T05:27:12;16.40;99.90
69901;DHT22;57183;50.930;5.406;2023-08-01T05:29:37;16.40;99.90
69901;DHT22;57183;50.930;5.406;2023-08-01T05:32:04;16.30;99.90
69901;DHT22;57183;50.930;5.406;2023-08-01T05:34:29;16.40;99.90
69901;DHT22;57183;50.930;5.406;2023-08-01T05:36:55;16.40;99.90
69901;DHT22;57183;50.930;5.406;2023-08-01T05:39:20;16.40;99.90
69901;DHT22;57183;50.930;5.406;2023-08-01T05:41:46;16.40;99.90
69901;DHT22;57183;50.930;5.406;2023-08-01T05:44:12;16.50;99.90
69901;DHT22;57183;50.930;5.406;2023-08-01T05:46:37;16.50;99.90
69901;DHT22;57183;50.930;5.406;2023-08-01T05:49:03;16.50;99.90
69901;DHT22;57183;50.930;5.406;2023-08-01T05:51:29;16.50;99.90
69901;DHT22;57183;50.930;5.406;2023-08-01T05:53:54;16.60;99.90
69901;DHT22;57183;50.930;5.406;2023-08-01T05:56:20;16.80;99.90
69901;DHT22;57183;50.930;5.406;2023-08-01T05:58:46;16.80;99.90
69901;DHT22;57183;50.930;5.406;2023-08-01T06:01:11;16.90;99.90
69901;DHT22;57183;50.930;5.406;2023-08-01T06:03:38;16.70;99.90
69901;DHT22;57183;50.930;5.406;2023-08-01T06:06:03;16.70;99.90
69901;DHT22;57183;50.930;5.406;2023-08-01T06:08:30;16.70;99.90
69901;DHT22;57183;50.930;5.406;2023-08-01T06:10:55;16.80;99.90
69901;DHT22;57183;50.930;5.406;2023-08-01T06:13:21;16.90;99.90
69901;DHT22;57183;50.930;5.406;2023-08-01T06:15:47;16.90;99.90
69901;DHT22;57183;50.930;5.406;2023-08-01T06:18:12;16.90;99.90
69901;DHT22;57183;50.930;5.406;2023-08-01T06:20:38;16.90;99.90
69901;DHT22;57183;50.930;5.406;2023-08-01T06:23:05;17.00;99.90
69901;DHT22;57183;50.930;5.406;2023-08-01T06:25:30;17.00;99.90
69901;DHT22;57183;50.930;5.406;2023-08-01T06:27:56;17.00;99.90
69901;DHT22;57183;50.930;5.406;2023-08-01T06:30:22;16.90;99.90
69901;DHT22;57183;50.930;5.406;2023-08-01T06:32:47;17.00;99.90
69901;DHT22;57183;50.930;5.406;2023-08-01T06:35:13;17.10;99.90
69901;DHT22;57183;50.930;5.406;2023-08-01T06:37:39;17.40;99.90
69901;DHT22;57183;50.930;5.406;2023-08-01T07:06:20;17.30;99.90
69901;DHT22;57183;50.930;5.406;2023-08-01T07:08:52;17.10;99.90
69901;DHT22;57183;50.930;5.406;2023-08-01T07:11:34;17.30;99.90
69901;DHT22;57183;50.930;5.406;2023-08-01T07:14:07;17.30;99.90
69901;DHT22;57183;50.930;5.406;2023-08-01T07:16:59;17.40;99.90
69901;DHT22;57183;50.930;5.406;2023-08-01T07:19:33;17.60;99.90
69901;DHT22;57183;50.930;5.406;2023-08-01T07:22:27;17.60;99.90
69901;DHT22;57183;50.930;5.406;2023-08-01T07:25:05;17.60;99.90
69901;DHT22;57183;50.930;5.406;2023-08-01T07:27:55;17.50;99.90
69901;DHT22;57183;50.930;5.406;2023-08-01T07:30:26;17.60;99.90
69901;DHT22;57183;50.930;5.406;2023-08-01T07:32:56;17.50;99.90
69901;DHT22;57183;50.930;5.406;2023-08-01T07:35:31;17.50;99.90
69901;DHT22;57183;50.930;5.406;2023-08-01T07:38:00;17.50;99.90
69901;DHT22;57183;50.930;5.406;2023-08-01T07:40:32;17.60;99.90
69901;DHT22;57183;50.930;5.406;2023-08-01T07:43:16;17.60;99.90
69901;DHT22;57183;50.930;5.406;2023-08-01T07:46:20;17.70;99.90
69901;DHT22;57183;50.930;5.406;2023-08-01T07:48:53;18.10;99.90
69901;DHT22;57183;50.930;5.406;2023-08-01T07:51:19;18.20;99.90
69901;DHT22;57183;50.930;5.406;2023-08-01T07:53:54;18.20;99.90
69901;DHT22;57183;50.930;5.406;2023-08-01T07:57:00;18.20;99.90
69901;DHT22;57183;50.930;5.406;2023-08-01T07:59:26;18.40;99.90
69901;DHT22;57183;50.930;5.406;2023-08-01T08:02:15;18.40;99.90
69901;DHT22;57183;50.930;5.406;2023-08-01T08:05:07;18.50;99.90
69901;DHT22;57183;50.930;5.406;2023-08-01T08:07:48;18.60;99.90
69901;DHT22;57183;50.930;5.406;2023-08-01T08:10:56;18.90;99.90
69901;DHT22;57183;50.930;5.406;2023-08-01T08:17:09;19.10;99.90
69901;DHT22;57183;50.930;5.406;2023-08-01T08:20:09;19.20;99.90
69901;DHT22;57183;50.930;5.406;2023-08-01T08:22:56;19.00;99.90
69901;DHT22;57183;50.930;5.406;2023-08-01T08:25:46;18.90;99.90
69901;DHT22;57183;50.930;5.406;2023-08-01T08:28:36;18.60;99.90
69901;DHT22;57183;50.930;5.406;2023-08-01T08:31:08;18.50;99.90
69901;DHT22;57183;50.930;5.406;2023-08-01T08:37:22;18.40;99.90
69901;DHT22;57183;50.930;5.406;2023-08-01T08:42:44;18.80;99.90
69901;DHT22;57183;50.930;5.406;2023-08-01T08:45:22;18.70;99.90
69901;DHT22;57183;50.930;5.406;2023-08-01T08:47:55;18.80;99.90
69901;DHT22;57183;50.930;5.406;2023-08-01T08:51:02;18.70;99.90
69901;DHT22;57183;50.930;5.406;2023-08-01T08:53:53;18.90;99.90
69901;DHT22;57183;50.930;5.406;2023-08-01T08:56:23;19.10;99.90
69901;DHT22;57183;50.930;5.406;2023-08-01T08:59:00;19.20;99.90
69901;DHT22;57183;50.930;5.406;2023-08-01T09:01:52;19.40;99.90
69901;DHT22;57183;50.930;5.406;2023-08-01T09:04:27;19.50;99.90
69901;DHT22;57183;50.930;5.406;2023-08-01T09:07:07;19.50;99.90
69901;DHT22;57183;50.930;5.406;2023-08-01T09:09:50;19.80;99.90
69901;DHT22;57183;50.930;5.406;2023-08-01T09:26:19;20.00;99.90
69901;DHT22;57183;50.930;5.406;2023-08-01T09:29:06;19.80;99.90
69901;DHT22;57183;50.930;5.406;2023-08-01T09:31:38;19.80;99.90
69901;DHT22;57183;50.930;5.406;2023-08-01T09:34:05;19.80;99.90
69901;DHT22;57183;50.930;5.406;2023-08-01T09:36:32;19.80;99.90
69901;DHT22;57183;50.930;5.406;2023-08-01T09:38:58;20.00;99.90
69901;DHT22;57183;50.930;5.406;2023-08-01T09:41:25;20.00;99.90
69901;DHT22;57183;50.930;5.406;2023-08-01T09:43:51;20.00;99.90
69901;DHT22;57183;50.930;5.406;2023-08-01T09:46:16;20.10;99.90
69901;DHT22;57183;50.930;5.406;2023-08-01T09:48:42;20.10;99.90
69901;DHT22;57183;50.930;5.406;2023-08-01T09:51:09;20.10;99.90
69901;DHT22;57183;50.930;5.406;2023-08-01T09:53:47;20.20;99.90
69901;DHT22;57183;50.930;5.406;2023-08-01T09:56:15;20.20;99.90
69901;DHT22;57183;50.930;5.406;2023-08-01T09:58:43;20.10;99.90
69901;DHT22;57183;50.930;5.406;2023-08-01T10:01:10;20.10;99.90
69901;DHT22;57183;50.930;5.406;2023-08-01T10:03:36;20.10;99.90
69901;DHT22;57183;50.930;5.406;2023-08-01T10:06:02;20.40;99.90
69901;DHT22;57183;50.930;5.406;2023-08-01T10:08:29;20.50;99.90
69901;DHT22;57183;50.930;5.406;2023-08-01T10:10:55;20.40;99.90
69901;DHT22;57183;50.930;5.406;2023-08-01T10:13:23;20.60;99.90
69901;DHT22;57183;50.930;5.406;2023-08-01T10:15:52;20.80;99.90
69901;DHT22;57183;50.930;5.406;2023-08-01T10:18:19;20.90;99.90
69901;DHT22;57183;50.930;5.406;2023-08-01T10:20:45;20.70;99.90
69901;DHT22;57183;50.930;5.406;2023-08-01T10:23:12;20.70;99.90
69901;DHT22;57183;50.930;5.406;2023-08-01T10:25:39;20.70;99.90
69901;DHT22;57183;50.930;5.406;2023-08-01T10:28:06;20.60;99.90
69901;DHT22;57183;50.930;5.406;2023-08-01T10:30:31;20.60;99.90
69901;DHT22;57183;50.930;5.406;2023-08-01T10:32:59;20.60;99.90
69901;DHT22;57183;50.930;5.406;2023-08-01T10:35:38;20.50;99.90
69901;DHT22;57183;50.930;5.406;2023-08-01T10:38:10;20.40;99.90
69901;DHT22;57183;50.930;5.406;2023-08-01T10:40:41;20.50;99.90
69901;DHT22;57183;50.930;5.406;2023-08-01T10:43:22;20.70;99.90
69901;DHT22;57183;50.930;5.406;2023-08-01T10:45:48;20.70;99.90
69901;DHT22;57183;50.930;5.406;2023-08-01T10:48:14;20.70;99.90
69901;DHT22;57183;50.930;5.406;2023-08-01T10:50:40;20.50;99.90
69901;DHT22;57183;50.930;5.406;2023-08-01T10:53:08;20.30;99.90
69901;DHT22;57183;50.930;5.406;2023-08-01T10:55:41;20.00;99.90
69901;DHT22;57183;50.930;5.406;2023-08-01T10:58:07;19.90;99.90
69901;DHT22;57183;50.930;5.406;2023-08-01T11:00:33;20.00;99.90
69901;DHT22;57183;50.930;5.406;2023-08-01T11:02:59;20.10;99.90
69901;DHT22;57183;50.930;5.406;2023-08-01T11:05:25;20.10;99.90
69901;DHT22;57183;50.930;5.406;2023-08-01T11:07:59;20.10;99.90
69901;DHT22;57183;50.930;5.406;2023-08-01T11:10:30;20.20;99.90
69901;DHT22;57183;50.930;5.406;2023-08-01T11:12:56;20.50;99.90
69901;DHT22;57183;50.930;5.406;2023-08-01T11:15:22;21.00;99.90
69901;DHT22;57183;50.930;5.406;2023-08-01T11:17:50;21.20;99.90
69901;DHT22;57183;50.930;5.406;2023-08-01T11:20:17;21.20;99.90
69901;DHT22;57183;50.930;5.406;2023-08-01T11:23:00;21.30;99.90
69901;DHT22;57183;50.930;5.406;2023-08-01T11:25:43;21.60;99.90
69901;DHT22;57183;50.930;5.406;2023-08-01T11:28:14;21.80;99.90
69901;DHT22;57183;50.930;5.406;2023-08-01T11:30:40;21.80;99.90
69901;DHT22;57183;50.930;5.406;2023-08-01T11:33:19;21.80;99.90
69901;DHT22;57183;50.930;5.406;2023-08-01T11:35:49;21.80;99.90
69901;DHT22;57183;50.930;5.406;2023-08-01T11:38:15;21.70;99.90
69901;DHT22;57183;50.930;5.406;2023-08-01T11:40:40;21.80;99.90
69901;DHT22;57183;50.930;5.406;2023-08-01T11:43:07;21.90;99.90
69901;DHT22;57183;50.930;5.406;2023-08-01T11:45:32;21.60;99.90
69901;DHT22;57183;50.930;5.406;2023-08-01T11:47:58;21.60;99.90
69901;DHT22;57183;50.930;5.406;2023-08-01T11:50:25;21.60;99.90
69901;DHT22;57183;50.930;5.406;2023-08-01T11:52:52;21.60;99.90
69901;DHT22;57183;50.930;5.406;2023-08-01T11:55:22;21.70;99.90
69901;DHT22;57183;50.930;5.406;2023-08-01T11:57:56;21.60;99.90
69901;DHT22;57183;50.930;5.406;2023-08-01T12:00:27;21.80;99.90
69901;DHT22;57183;50.930;5.406;2023-08-01T12:03:04;21.70;99.90
69901;DHT22;57183;50.930;5.406;2023-08-01T12:05:30;21.60;99.90
69901;DHT22;57183;50.930;5.406;2023-08-01T12:07:56;21.50;99.90
69901;DHT22;57183;50.930;5.406;2023-08-01T12:10:43;21.40;99.90
69901;DHT22;57183;50.930;5.406;2023-08-01T12:13:25;21.70;99.90
69901;DHT22;57183;50.930;5.406;2023-08-01T12:15:53;21.90;99.90
69901;DHT22;57183;50.930;5.406;2023-08-01T12:18:23;22.00;99.90
69901;DHT22;57183;50.930;5.406;2023-08-01T12:20:49;22.00;99.90
69901;DHT22;57183;50.930;5.406;2023-08-01T12:23:15;22.00;99.90
69901;DHT22;57183;50.930;5.406;2023-08-01T12:25:41;22.00;99.90
69901;DHT22;57183;50.930;5.406;2023-08-01T12:28:06;22.20;99.90
69901;DHT22;57183;50.930;5.406;2023-08-01T12:30:32;22.40;99.90
69901;DHT22;57183;50.930;5.406;2023-08-01T12:32:58;22.50;99.90
69901;DHT22;57183;50.930;5.406;2023-08-01T12:35:23;22.60;99.90
69901;DHT22;57183;50.930;5.406;2023-08-01T12:37:49;22.40;99.90
69901;DHT22;57183;50.930;5.406;2023-08-01T12:40:17;22.00;99.90
69901;DHT22;57183;50.930;5.406;2023-08-01T12:42:43;21.60;99.90
69901;DHT22;57183;50.930;5.406;2023-08-01T12:45:08;21.30;99.90
69901;DHT22;57183;50.930;5.406;2023-08-01T12:47:34;21.20;99.90
69901;DHT22;57183;50.930;5.406;2023-08-01T12:50:00;21.20;99.90
69901;DHT22;57183;50.930;5.406;2023-08-01T12:52:27;20.90;99.90
69901;DHT22;57183;50.930;5.406;2023-08-01T12:54:52;20.90;99.90
69901;DHT22;57183;50.930;5.406;2023-08-01T12:57:18;21.00;99.90
69901;DHT22;57183;50.930;5.406;2023-08-01T12:59:44;21.10;99.90
69901;DHT22;57183;50.930;5.406;2023-08-01T13:02:10;20.90;99.90
69901;DHT22;57183;50.930;5.406;2023-08-01T13:04:35;21.00;99.90
69901;DHT22;57183;50.930;5.406;2023-08-01T13:07:01;21.40;99.90
69901;DHT22;57183;50.930;5.406;2023-08-01T13:09:26;21.80;99.90
69901;DHT22;57183;50.930;5.406;2023-08-01T13:11:52;21.90;99.90
69901;DHT22;57183;50.930;5.406;2023-08-01T13:14:18;21.90;99.90
69901;DHT22;57183;50.930;5.406;2023-08-01T13:16:44;21.70;99.90
69901;DHT22;57183;50.930;5.406;2023-08-01T13:19:09;21.50;99.90
69901;DHT22;57183;50.930;5.406;2023-08-01T13:21:35;21.40;99.90
69901;DHT22;57183;50.930;5.406;2023-08-01T13:24:01;21.30;99.90
69901;DHT22;57183;50.930;5.406;2023-08-01T13:26:31;21.40;99.90
69901;DHT22;57183;50.930;5.406;2023-08-01T13:29:00;21.40;99.90
69901;DHT22;57183;50.930;5.406;2023-08-01T13:31:26;21.30;99.90
69901;DHT22;57183;50.930;5.406;2023-08-01T13:33:52;21.20;99.90
69901;DHT22;57183;50.930;5.406;2023-08-01T13:36:18;21.00;99.90
69901;DHT22;57183;50.930;5.406;2023-08-01T13:38:44;21.00;99.90
69901;DHT22;57183;50.930;5.406;2023-08-01T13:41:10;21.00;99.90
69901;DHT22;57183;50.930;5.406;2023-08-01T13:43:36;20.90;99.90
69901;DHT22;57183;50.930;5.406;2023-08-01T13:46:15;20.90;99.90
69901;DHT22;57183;50.930;5.406;2023-08-01T13:48:44;20.70;99.90
69901;DHT22;57183;50.930;5.406;2023-08-01T13:51:10;20.70;99.90
69901;DHT22;57183;50.930;5.406;2023-08-01T13:53:36;20.50;99.90
69901;DHT22;57183;50.930;5.406;2023-08-01T13:56:09;20.60;99.90
69901;DHT22;57183;50.930;5.406;2023-08-01T13:58:35;20.60;99.90
69901;DHT22;57183;50.930;5.406;2023-08-01T14:01:08;20.80;99.90
69901;DHT22;57183;50.930;5.406;2023-08-01T14:03:37;20.80;99.90
69901;DHT22;57183;50.930;5.406;2023-08-01T14:06:07;20.80;99.90
69901;DHT22;57183;50.930;5.406;2023-08-01T14:08:34;20.60;99.90
69901;DHT22;57183;50.930;5.406;2023-08-01T14:11:01;20.50;99.90
69901;DHT22;57183;50.930;5.406;2023-08-01T14:13:27;20.50;99.90
69901;DHT22;57183;50.930;5.406;2023-08-01T14:15:52;20.60;99.90
69901;DHT22;57183;50.930;5.406;2023-08-01T14:18:18;20.90;99.90
69901;DHT22;57183;50.930;5.406;2023-08-01T14:20:43;21.10;99.90
69901;DHT22;57183;50.930;5.406;2023-08-01T14:23:09;21.30;99.90
69901;DHT22;57183;50.930;5.406;2023-08-01T14:25:35;21.60;99.90
69901;DHT22;57183;50.930;5.406;2023-08-01T14:28:01;21.50;99.90
69901;DHT22;57183;50.930;5.406;2023-08-01T14:30:27;21.70;99.90
69901;DHT22;57183;50.930;5.406;2023-08-01T14:33:02;23.10;99.90
69901;DHT22;57183;50.930;5.406;2023-08-01T14:35:28;23.70;99.90
69901;DHT22;57183;50.930;5.406;2023-08-01T14:37:53;24.80;99.90
69901;DHT22;57183;50.930;5.406;2023-08-01T14:40:21;24.60;99.90
69901;DHT22;57183;50.930;5.406;2023-08-01T14:42:47;23.30;99.90
69901;DHT22;57183;50.930;5.406;2023-08-01T14:45:13;22.50;99.90
69901;DHT22;57183;50.930;5.406;2023-08-01T14:47:40;22.40;99.90
69901;DHT22;57183;50.930;5.406;2023-08-01T14:50:06;22.20;99.90
69901;DHT22;57183;50.930;5.406;2023-08-01T14:52:32;21.90;99.90
69901;DHT22;57183;50.930;5.406;2023-08-01T14:54:58;21.80;99.90
69901;DHT22;57183;50.930;5.406;2023-08-01T14:57:23;21.70;99.90
69901;DHT22;57183;50.930;5.406;2023-08-01T14:59:49;21.50;99.90
69901;DHT22;57183;50.930;5.406;2023-08-01T15:02:15;21.30;99.90
69901;DHT22;57183;50.930;5.406;2023-08-01T15:04:41;21.00;99.90
69901;DHT22;57183;50.930;5.406;2023-08-01T15:07:07;20.70;99.90
69901;DHT22;57183;50.930;5.406;2023-08-01T15:09:33;20.50;99.90
69901;DHT22;57183;50.930;5.406;2023-08-01T15:11:59;20.30;99.90
69901;DHT22;57183;50.930;5.406;2023-08-01T15:14:25;20.20;99.90
69901;DHT22;57183;50.930;5.406;2023-08-01T15:16:51;20.10;99.90
69901;DHT22;57183;50.930;5.406;2023-08-01T15:19:17;20.10;99.90
69901;DHT22;57183;50.930;5.406;2023-08-01T15:21:42;20.20;99.90
69901;DHT22;57183;50.930;5.406;2023-08-01T15:24:09;20.40;99.90
69901;DHT22;57183;50.930;5.406;2023-08-01T15:26:35;20.50;99.90
69901;DHT22;57183;50.930;5.406;2023-08-01T15:29:01;20.60;99.90
69901;DHT22;57183;50.930;5.406;2023-08-01T15:31:26;20.50;99.90
69901;DHT22;57183;50.930;5.406;2023-08-01T15:33:52;20.40;99.90
69901;DHT22;57183;50.930;5.406;2023-08-01T15:36:19;20.20;99.90
69901;DHT22;57183;50.930;5.406;2023-08-01T15:38:50;19.90;99.90
69901;DHT22;57183;50.930;5.406;2023-08-01T15:41:16;19.50;99.90
69901;DHT22;57183;50.930;5.406;2023-08-01T15:43:41;19.20;99.90
69901;DHT22;57183;50.930;5.406;2023-08-01T15:46:08;19.20;99.90
69901;DHT22;57183;50.930;5.406;2023-08-01T15:48:35;19.00;99.90
69901;DHT22;57183;50.930;5.406;2023-08-01T15:51:02;19.10;99.90
69901;DHT22;57183;50.930;5.406;2023-08-01T15:53:28;19.10;99.90
69901;DHT22;57183;50.930;5.406;2023-08-01T15:55:58;19.10;99.90
69901;DHT22;57183;50.930;5.406;2023-08-01T15:58:25;19.10;99.90
69901;DHT22;57183;50.930;5.406;2023-08-01T16:00:51;19.00;99.90
69901;DHT22;57183;50.930;5.406;2023-08-01T16:03:17;19.10;99.90
69901;DHT22;57183;50.930;5.406;2023-08-01T16:05:43;19.20;99.90
69901;DHT22;57183;50.930;5.406;2023-08-01T16:08:08;19.30;99.90
69901;DHT22;57183;50.930;5.406;2023-08-01T16:10:34;19.50;99.90
69901;DHT22;57183;50.930;5.406;2023-08-01T16:13:00;19.60;99.90
69901;DHT22;57183;50.930;5.406;2023-08-01T16:15:25;19.70;99.90
69901;DHT22;57183;50.930;5.406;2023-08-01T16:17:51;19.70;99.90
69901;DHT22;57183;50.930;5.406;2023-08-01T16:20:17;19.70;99.90
69901;DHT22;57183;50.930;5.406;2023-08-01T16:22:43;19.70;99.90
69901;DHT22;57183;50.930;5.406;2023-08-01T16:25:09;19.80;99.90
69901;DHT22;57183;50.930;5.406;2023-08-01T16:27:35;19.80;99.90
69901;DHT22;57183;50.930;5.406;2023-08-01T16:30:02;19.60;99.90